Time;durP1;ratioP1;P1;durP2;ratioP2;P2;SDS_P1;SDS_P2;PMS_P1;PMS_P2;Temp;Humidity;BMP_temperature;BMP_pressure;BME280_temperature;BME280_humidity;BME280_pressure;Samples;Min_cycle;Max_cycle;Signal;HPM_P1;HPM_P2
2022/10/10 00:01:17;;;;;;;7.20;6.12;;;;;;;11.08;100.00;101000.84;1727488;82;20829;-37
2022/10/10 00:03:45;;;;;;;6.40;5.80;;;;;;;11.05;100.00;100987.48;1727559;82;21022;-37
2022/10/10 00:06:12;;;;;;;8.50;6.22;;;;;;;11.05;100.00;100993.11;1727605;83;20933;-36
2022/10/10 00:08:41;;;;;;;6.95;6.28;;;;;;;11.04;100.00;100989.64;1667368;84;20999;-37
2022/10/10 00:11:09;;;;;;;6.28;5.58;;;;;;;11.02;100.00;100991.40;1692785;84;21204;-39
2022/10/10 00:13:37;;;;;;;9.08;5.70;;;;;;;11.02;100.00;100999.63;1692569;83;21393;-36
2022/10/10 00:16:05;;;;;;;9.75;6.37;;;;;;;11.02;100.00;100994.45;1693021;84;21533;-37
2022/10/10 00:18:32;;;;;;;11.45;6.40;;;;;;;11.00;100.00;100997.49;1692526;84;20979;-38
2022/10/10 00:21:00;;;;;;;10.63;6.33;;;;;;;11.00;100.00;100999.63;1692789;84;21517;-36
2022/10/10 00:23:26;;;;;;;10.63;6.90;;;;;;;11.00;100.00;100987.13;1692761;84;21182;-37
2022/10/10 00:25:54;;;;;;;10.13;6.67;;;;;;;10.99;100.00;100986.68;1692579;84;20940;-39
2022/10/10 00:28:20;;;;;;;8.30;6.05;;;;;;;10.96;100.00;100992.77;1692636;84;20975;-40
2022/10/10 00:30:47;;;;;;;7.80;6.65;;;;;;;10.95;100.00;100994.07;1692509;84;21477;-40
2022/10/10 00:33:15;;;;;;;8.78;6.22;;;;;;;10.95;100.00;100985.01;1689832;84;21466;-38
2022/10/10 00:35:42;;;;;;;10.35;6.30;;;;;;;10.92;100.00;100976.41;1680127;85;21045;-36
2022/10/10 00:38:10;;;;;;;8.78;6.55;;;;;;;10.89;100.00;100979.03;1704698;83;21035;-39
2022/10/10 00:40:50;;;;;;;7.62;6.83;;;;;;;10.87;100.00;100976.90;1714604;83;20905;-38
2022/10/10 00:43:17;;;;;;;8.45;6.62;;;;;;;10.85;100.00;100985.13;1714577;83;20972;-39
2022/10/10 00:45:45;;;;;;;10.35;8.15;;;;;;;10.80;100.00;100992.09;1714594;82;20945;-37
2022/10/10 00:48:19;;;;;;;7.92;7.12;;;;;;;10.78;100.00;100994.69;1704449;83;21175;-37
2022/10/10 00:50:51;;;;;;;9.63;7.50;;;;;;;10.77;100.00;100992.13;1714636;83;20905;-37
2022/10/10 00:53:21;;;;;;;10.30;6.87;;;;;;;10.76;100.00;100993.00;1714785;83;20988;-38
2022/10/10 00:55:48;;;;;;;9.33;7.12;;;;;;;10.75;100.00;101001.20;1714858;83;20992;-36
2022/10/10 00:58:15;;;;;;;13.90;7.70;;;;;;;10.74;100.00;100999.48;1704602;83;21032;-37
2022/10/10 01:00:42;;;;;;;11.68;7.60;;;;;;;10.71;100.00;101005.98;1714481;82;22206;-37
2022/10/10 01:03:09;;;;;;;9.83;7.15;;;;;;;10.68;100.00;100998.68;1714628;83;20957;-36
2022/10/10 01:05:36;;;;;;;8.73;7.72;;;;;;;10.64;100.00;101009.07;1714736;83;20928;-36
2022/10/10 01:08:04;;;;;;;9.00;7.75;;;;;;;10.61;100.00;101005.67;1704417;83;20968;-36
2022/10/10 01:10:31;;;;;;;10.50;7.62;;;;;;;10.59;100.00;101010.85;1704674;83;21465;-40
2022/10/10 01:13:26;;;;;;;8.58;7.65;;;;;;;10.59;100.00;101002.21;1714635;83;21143;-38
2022/10/10 01:16:19;;;;;;;18.37;8.10;;;;;;;10.58;100.00;101003.95;1714656;82;20980;-38
2022/10/10 01:19:15;;;;;;;10.13;8.65;;;;;;;10.58;100.00;101010.43;1704266;82;21537;-40
2022/10/10 01:22:15;;;;;;;9.13;7.67;;;;;;;10.56;100.00;101009.59;1714549;83;21027;-37
2022/10/10 01:25:13;;;;;;;9.90;8.33;;;;;;;10.55;100.00;101010.47;1714629;83;20897;-37
2022/10/10 01:27:49;;;;;;;9.00;7.70;;;;;;;10.52;100.00;101008.33;1714831;83;21109;-40
2022/10/10 01:30:21;;;;;;;9.05;7.97;;;;;;;10.48;100.00;101010.08;1704479;83;20944;-37
2022/10/10 01:33:12;;;;;;;12.95;8.55;;;;;;;10.47;100.00;101011.82;1714249;82;20905;-40
2022/10/10 01:36:06;;;;;;;12.50;8.50;;;;;;;10.45;100.00;101012.27;1714933;82;20996;-41
2022/10/10 01:38:44;;;;;;;10.13;8.13;;;;;;;10.48;100.00;101020.43;1714429;82;20937;-38
2022/10/10 01:41:26;;;;;;;9.70;8.23;;;;;;;10.47;100.00;101026.48;1714810;82;21093;-39
2022/10/10 01:43:54;;;;;;;12.00;8.28;;;;;;;10.48;100.00;101025.61;1714567;83;20917;-39
2022/10/10 01:46:21;;;;;;;11.57;8.25;;;;;;;10.49;100.00;101021.72;1714585;83;20870;-40
2022/10/10 01:48:49;;;;;;;8.83;7.95;;;;;;;10.52;100.00;101016.97;1714638;83;20854;-41
2022/10/10 01:51:25;;;;;;;8.80;7.90;;;;;;;10.52;100.00;101022.14;1714712;83;20925;-41
2022/10/10 01:54:12;;;;;;;13.30;8.63;;;;;;;10.54;100.00;101025.58;1714766;83;21157;-39
2022/10/10 01:56:47;;;;;;;9.30;7.45;;;;;;;10.55;100.00;101023.83;1728741;82;21632;-39
2022/10/10 01:59:51;;;;;;;;;;;;;;;10.55;100.00;101029.87;1717311;82;21040;-37
2022/10/10 02:02:38;;;;;;;8.13;7.35;;;;;;;10.58;100.00;101041.50;1714705;83;20531;-36
2022/10/10 02:05:17;;;;;;;8.40;7.50;;;;;;;10.60;100.00;101039.75;1714583;82;20992;-40
2022/10/10 02:07:57;;;;;;;8.95;7.47;;;;;;;10.61;100.00;101036.28;1714702;83;21150;-38
2022/10/10 02:10:27;;;;;;;11.63;7.78;;;;;;;10.64;100.00;101041.43;1714858;83;20933;-37
2022/10/10 02:12:56;;;;;;;7.67;6.87;;;;;;;10.65;100.00;101039.72;1714560;82;20980;-40
2022/10/10 02:15:25;;;;;;;12.45;7.50;;;;;;;10.67;100.00;101051.34;1714707;83;20997;-36
2022/10/10 02:17:52;;;;;;;7.80;6.87;;;;;;;10.68;100.00;101046.58;1714588;83;20988;-36
2022/10/10 02:20:21;;;;;;;8.53;7.20;;;;;;;10.71;100.00;101049.13;1716467;83;21151;-35
2022/10/10 02:22:48;;;;;;;8.63;7.22;;;;;;;10.71;100.00;101056.91;1714772;82;20894;-39
2022/10/10 02:25:15;;;;;;;10.63;6.80;;;;;;;10.73;100.00;101047.38;1716623;83;21044;-38
2022/10/10 02:28:08;;;;;;;9.43;6.92;;;;;;;10.74;100.00;101051.72;1714704;82;21422;-39
2022/10/10 02:30:37;;;;;;;9.98;6.85;;;;;;;10.75;100.00;101045.67;1714584;83;20948;-40
2022/10/10 02:33:04;;;;;;;9.48;6.95;;;;;;;10.76;100.00;101053.41;1714563;83;21147;-37
2022/10/10 02:35:36;;;;;;;13.93;8.03;;;;;;;10.76;100.00;101051.27;1714571;83;20898;-37
2022/10/10 02:38:04;;;;;;;8.93;7.83;;;;;;;10.76;100.00;101045.63;1704424;83;21489;-36
2022/10/10 02:40:31;;;;;;;11.68;7.55;;;;;;;10.77;100.00;101048.64;1630078;85;21026;-36
2022/10/10 02:43:00;;;;;;;8.20;6.80;;;;;;;10.76;100.00;101053.86;1680138;85;21508;-39
2022/10/10 02:45:27;;;;;;;13.70;7.10;;;;;;;10.77;100.00;101042.17;1659180;85;21224;-39
2022/10/10 02:47:55;;;;;;;11.12;7.97;;;;;;;10.78;100.00;101044.34;1679997;85;21454;-36
2022/10/10 02:50:22;;;;;;;10.70;8.50;;;;;;;10.78;100.00;101038.70;1679942;85;20983;-38
2022/10/10 02:52:48;;;;;;;11.43;7.97;;;;;;;10.79;100.00;101046.05;1679878;85;21027;-37
2022/10/10 02:55:15;;;;;;;10.48;8.43;;;;;;;10.82;100.00;101049.91;1680182;85;20940;-37
2022/10/10 02:57:42;;;;;;;10.43;8.48;;;;;;;10.83;100.00;101055.50;1680143;85;21054;-36
2022/10/10 03:00:11;;;;;;;11.48;8.63;;;;;;;10.82;100.00;101048.61;1680139;85;20948;-36
2022/10/10 03:02:38;;;;;;;12.90;7.83;;;;;;;10.84;100.00;101051.16;1680191;85;21079;-37
2022/10/10 03:05:06;;;;;;;9.83;8.10;;;;;;;10.86;100.00;101049.00;1680080;85;20956;-38
2022/10/10 03:07:33;;;;;;;11.95;9.08;;;;;;;10.87;100.00;101053.30;1680254;85;21103;-37
2022/10/10 03:09:59;;;;;;;14.18;7.22;;;;;;;10.87;100.00;101053.30;1680215;85;21384;-37
2022/10/10 03:12:26;;;;;;;11.03;8.28;;;;;;;10.89;100.00;101055.89;1680169;85;20956;-37
2022/10/10 03:14:54;;;;;;;10.20;8.05;;;;;;;10.89;100.00;101051.55;1680222;85;20971;-39
2022/10/10 03:17:21;;;;;;;10.72;8.65;;;;;;;10.90;100.00;101058.45;1659121;85;20943;-37
2022/10/10 03:19:48;;;;;;;15.18;9.20;;;;;;;10.90;100.00;101057.61;1680216;85;20908;-38
2022/10/10 03:22:15;;;;;;;13.48;8.90;;;;;;;10.89;100.00;101055.89;1680361;85;21388;-37
2022/10/10 03:24:41;;;;;;;13.78;9.08;;;;;;;10.86;100.00;101059.78;1680038;85;20975;-36
2022/10/10 03:27:08;;;;;;;12.00;8.58;;;;;;;10.80;100.00;101058.13;1680090;85;21600;-39
2022/10/10 03:29:35;;;;;;;11.88;8.45;;;;;;;10.76;100.00;101062.92;1680135;85;21010;-39
2022/10/10 03:32:02;;;;;;;9.25;8.33;;;;;;;10.72;100.00;101063.80;1680138;85;20904;-38
2022/10/10 03:34:31;;;;;;;12.03;9.43;;;;;;;10.68;100.00;101064.70;1682808;84;21250;-38
2022/10/10 03:36:58;;;;;;;13.58;9.10;;;;;;;10.62;100.00;101069.07;1687701;85;20943;-37
2022/10/10 03:39:25;;;;;;;14.33;8.85;;;;;;;10.58;100.00;101069.09;1687512;85;21041;-35
2022/10/10 03:41:52;;;;;;;11.78;8.63;;;;;;;10.52;100.00;101066.16;1687484;85;20955;-36
2022/10/10 03:44:19;;;;;;;13.90;9.70;;;;;;;10.46;100.00;101061.00;1687594;85;20986;-38
2022/10/10 03:46:45;;;;;;;10.23;9.08;;;;;;;10.43;100.00;101067.50;1687539;85;21254;-38
2022/10/10 03:49:14;;;;;;;10.75;9.15;;;;;;;10.39;100.00;101059.31;1687511;85;21473;-35
2022/10/10 03:51:41;;;;;;;11.83;9.38;;;;;;;10.37;100.00;101059.77;1687386;84;20908;-38
2022/10/10 03:54:07;;;;;;;12.65;9.95;;;;;;;10.32;100.00;101072.30;1687481;85;21374;-37
2022/10/10 03:56:35;;;;;;;10.80;9.15;;;;;;;10.29;100.00;101066.28;1687578;85;20959;-39
2022/10/10 03:59:02;;;;;;;11.83;9.98;;;;;;;10.26;100.00;101069.77;1687671;85;21517;-36
2022/10/10 04:01:29;;;;;;;14.47;9.75;;;;;;;10.23;100.00;101071.09;1687391;85;20951;-39
2022/10/10 04:03:56;;;;;;;14.43;9.20;;;;;;;10.20;100.00;101071.08;1687411;85;20948;-36
2022/10/10 04:06:23;;;;;;;13.20;9.05;;;;;;;10.19;100.00;101079.72;1687740;85;21469;-38
2022/10/10 04:08:50;;;;;;;13.80;9.68;;;;;;;10.16;100.00;101080.62;1687605;85;21002;-40
2022/10/10 04:11:17;;;;;;;11.73;9.88;;;;;;;10.15;100.00;101081.91;1687555;85;21258;-37
2022/10/10 04:13:45;;;;;;;10.82;9.35;;;;;;;10.13;100.00;101078.47;1687461;85;20920;-36
2022/10/10 04:16:12;;;;;;;14.18;10.00;;;;;;;10.13;100.00;101083.64;1687526;85;20984;-38
2022/10/10 04:18:38;;;;;;;11.28;8.98;;;;;;;10.14;100.00;101077.60;1722321;83;20952;-40
2022/10/10 04:21:06;;;;;;;15.08;9.40;;;;;;;10.13;100.00;101083.64;1722369;83;20909;-35
2022/10/10 04:23:33;;;;;;;11.15;9.08;;;;;;;10.13;100.00;101079.77;1687500;84;21164;-38
2022/10/10 04:26:00;;;;;;;13.20;9.15;;;;;;;10.13;100.00;101074.59;1687605;85;20975;-38
2022/10/10 04:28:27;;;;;;;14.80;9.28;;;;;;;10.14;100.00;101081.48;1687537;85;20907;-38
2022/10/10 04:30:55;;;;;;;11.15;8.68;;;;;;;10.13;100.00;101077.17;1687459;83;20979;-39
2022/10/10 04:33:22;;;;;;;14.87;9.18;;;;;;;10.14;100.00;101073.72;1687691;85;21066;-36
2022/10/10 04:35:49;;;;;;;8.75;7.50;;;;;;;10.12;100.00;101076.34;1681660;85;21155;-40
2022/10/10 04:38:17;;;;;;;9.30;7.42;;;;;;;10.14;100.00;101087.53;1680019;85;21074;-35
2022/10/10 04:40:43;;;;;;;12.30;7.75;;;;;;;10.13;100.00;101083.23;1680031;85;21498;-39
2022/10/10 04:43:10;;;;;;;10.10;7.70;;;;;;;10.14;100.00;101083.66;1682166;85;21003;-39
2022/10/10 04:45:37;;;;;;;10.03;7.62;;;;;;;10.15;100.00;101088.37;1680226;85;20963;-38
2022/10/10 04:48:04;;;;;;;16.42;8.15;;;;;;;10.16;100.00;101096.55;1680085;85;21212;-38
2022/10/10 04:50:32;;;;;;;11.45;8.50;;;;;;;10.17;100.00;101096.98;1679941;85;20980;-36
2022/10/10 04:52:59;;;;;;;9.68;7.35;;;;;;;10.17;100.00;101090.52;1680060;85;20987;-36
2022/10/10 04:55:28;;;;;;;16.52;8.28;;;;;;;10.17;100.00;101095.27;1680283;85;20904;-36
2022/10/10 04:57:54;;;;;;;13.88;7.80;;;;;;;10.18;100.00;101093.52;1659229;85;20928;-35
2022/10/10 05:00:21;;;;;;;10.50;7.72;;;;;;;10.20;100.00;101102.13;1680132;85;21064;-38
2022/10/10 05:02:47;;;;;;;11.97;8.38;;;;;;;10.21;100.00;101097.38;1679916;85;20908;-39
2022/10/10 05:05:14;;;;;;;9.60;7.83;;;;;;;10.22;100.00;101099.09;1680116;85;21008;-38
2022/10/10 05:07:42;;;;;;;14.00;8.28;;;;;;;10.21;100.00;101098.67;1659452;85;21002;-35
2022/10/10 05:10:10;;;;;;;16.42;9.40;;;;;;;10.20;100.00;101095.66;1680046;85;21018;-35
2022/10/10 05:12:37;;;;;;;10.15;8.40;;;;;;;10.20;100.00;101097.83;1680051;85;21157;-35
2022/10/10 05:15:05;;;;;;;11.48;8.40;;;;;;;10.20;100.00;101105.59;1680071;85;20948;-36
2022/10/10 05:17:31;;;;;;;12.35;7.95;;;;;;;10.21;100.00;101106.44;1659060;85;20960;-37
2022/10/10 05:19:58;;;;;;;11.65;8.18;;;;;;;10.22;100.00;101101.69;1680044;85;20941;-38
2022/10/10 05:22:25;;;;;;;10.65;7.25;;;;;;;10.23;100.00;101100.84;1704391;83;20933;-38
2022/10/10 05:24:51;;;;;;;11.40;7.83;;;;;;;10.23;100.00;101109.91;1714676;83;21241;-39
2022/10/10 05:27:18;;;;;;;12.73;7.85;;;;;;;10.25;100.00;101109.45;1714534;82;20988;-37
2022/10/10 05:29:45;;;;;;;10.03;6.75;;;;;;;10.27;100.00;101112.89;1714715;83;21008;-39
2022/10/10 05:32:12;;;;;;;10.45;7.37;;;;;;;10.30;100.00;101105.52;1681066;83;21015;-40
2022/10/10 05:34:39;;;;;;;14.45;7.28;;;;;;;10.32;100.00;101108.95;1714623;82;21016;-38
2022/10/10 05:37:05;;;;;;;7.75;6.97;;;;;;;10.36;100.00;101111.97;1714605;82;21260;-40
2022/10/10 05:39:32;;;;;;;13.35;6.78;;;;;;;10.40;100.00;101112.79;1714598;83;21000;-40
2022/10/10 05:41:59;;;;;;;9.30;6.05;;;;;;;10.42;100.00;101108.48;1714537;82;20921;-39
2022/10/10 05:44:26;;;;;;;8.00;6.15;;;;;;;10.40;100.00;101112.41;1714581;83;20897;-37
2022/10/10 05:46:52;;;;;;;6.87;6.17;;;;;;;10.41;100.00;101107.65;1714634;82;20929;-37
2022/10/10 05:49:19;;;;;;;6.22;5.72;;;;;;;10.41;100.00;101111.53;1714719;83;21144;-37
2022/10/10 05:51:46;;;;;;;7.67;5.70;;;;;;;10.43;100.00;101116.67;1714610;83;21509;-40
2022/10/10 05:54:12;;;;;;;6.83;5.95;;;;;;;10.43;100.00;101114.09;1714378;83;20949;-38
2022/10/10 05:56:39;;;;;;;6.60;5.25;;;;;;;10.43;100.00;101110.20;1714626;82;20960;-36
2022/10/10 05:59:06;;;;;;;6.83;5.03;;;;;;;10.43;100.00;101106.32;1714584;83;20999;-38
2022/10/10 06:01:34;;;;;;;6.25;5.40;;;;;;;10.43;100.00;101116.67;1714557;83;21296;-40
2022/10/10 06:04:01;;;;;;;7.80;5.05;;;;;;;10.42;100.00;101116.25;1714519;83;21031;-41
2022/10/10 06:06:29;;;;;;;5.72;4.45;;;;;;;10.41;100.00;101119.72;1714557;83;20940;-39
2022/10/10 06:08:56;;;;;;;6.95;4.62;;;;;;;10.31;100.00;101118.46;1714569;82;20921;-41
2022/10/10 06:11:23;;;;;;;4.28;3.75;;;;;;;10.25;100.00;101119.80;1714720;83;20949;-40
2022/10/10 06:13:56;;;;;;;3.67;3.37;;;;;;;10.18;100.00;101123.27;1714597;82;21466;-40
2022/10/10 06:16:22;;;;;;;4.45;2.90;;;;;;;10.10;100.00;101119.89;1714178;82;20857;-39
2022/10/10 06:18:48;;;;;;;5.47;2.95;;;;;;;10.04;100.00;101119.48;1714637;83;20984;-40
2022/10/10 06:21:16;;;;;;;3.05;2.80;;;;;;;9.98;100.00;101128.16;1714433;82;20905;-39
2022/10/10 06:23:43;;;;;;;2.40;2.20;;;;;;;9.93;100.00;101133.75;1714689;82;21016;-40
2022/10/10 06:26:10;;;;;;;2.70;2.15;;;;;;;9.87;100.00;101142.42;1714687;83;22218;-39
2022/10/10 06:28:37;;;;;;;2.35;2.15;;;;;;;9.81;100.00;101138.55;1714540;83;21031;-40
2022/10/10 06:31:05;;;;;;;2.42;2.22;;;;;;;9.76;100.00;101150.23;1714578;83;20936;-41
2022/10/10 06:33:32;;;;;;;2.50;2.35;;;;;;;9.68;100.00;101141.63;1716318;83;21019;-39
2022/10/10 06:36:00;;;;;;;3.17;2.15;;;;;;;9.57;100.00;101156.32;1714534;82;20913;-39
2022/10/10 06:38:27;;;;;;;3.85;2.15;;;;;;;9.48;100.00;101155.91;1704490;83;21166;-37
2022/10/10 06:40:54;;;;;;;2.10;2.00;;;;;;;9.43;100.00;101149.45;1714551;83;20905;-37
2022/10/10 06:43:20;;;;;;;7.03;2.42;;;;;;;9.38;100.00;101151.64;1714619;82;20940;-40
2022/10/10 06:45:49;;;;;;;3.37;3.08;;;;;;;9.30;100.00;101154.23;1714617;83;21498;-40
2022/10/10 06:48:16;;;;;;;3.15;2.87;;;;;;;9.22;100.00;101152.95;1714579;83;20957;-37
2022/10/10 06:51:21;;;;;;;3.47;3.08;;;;;;;9.24;100.00;101152.96;1798452;79;22677;-37
2022/10/10 06:53:49;;;;;;;3.50;3.12;;;;;;;9.15;100.00;101153.83;1758059;81;20929;-37
2022/10/10 06:56:20;;;;;;;3.65;3.27;;;;;;;9.09;100.00;101148.23;1758022;81;21781;-37
2022/10/10 06:58:47;;;;;;;3.67;3.37;;;;;;;9.07;100.00;101153.84;1757965;81;20885;-38
2022/10/10 07:01:16;;;;;;;5.78;3.85;;;;;;;9.07;100.00;101147.38;1758047;81;21513;-39
2022/10/10 07:03:43;;;;;;;5.08;3.62;;;;;;;9.04;100.00;101151.27;1751059;81;20945;-39
2022/10/10 07:06:10;;;;;;;4.10;3.70;;;;;;;9.03;100.00;101156.84;1749770;82;20961;-39
2022/10/10 07:08:38;;;;;;;3.83;3.45;;;;;;;9.03;100.00;101159.42;1749720;82;21236;-38
2022/10/10 07:11:06;;;;;;;5.87;3.17;;;;;;;9.04;100.00;101161.14;1749996;82;21023;-40
2022/10/10 07:13:35;;;;;;;5.15;3.17;;;;;;;9.03;100.00;101145.22;1749716;82;20936;-38
2022/10/10 07:16:02;;;;;;;3.10;2.80;;;;;;;9.04;100.00;101156.42;1749694;82;21031;-38
2022/10/10 07:18:30;;;;;;;6.85;3.72;;;;;;;9.03;100.00;101152.13;1749780;82;20936;-39
2022/10/10 07:20:58;;;;;;;5.42;3.40;;;;;;;9.00;100.00;101163.75;1749866;81;21123;-38
2022/10/10 07:23:25;;;;;;;3.02;2.80;;;;;;;8.98;100.00;101155.15;1749740;82;20889;-40
2022/10/10 07:26:00;;;;;;;5.25;2.92;;;;;;;8.98;100.00;101159.02;1749794;82;20983;-41
2022/10/10 07:28:28;;;;;;;3.65;2.85;;;;;;;9.01;100.00;101162.89;1749690;81;21525;-39
2022/10/10 07:31:04;;;;;;;5.12;2.90;;;;;;;9.02;100.00;101156.86;1749705;82;20960;-40
2022/10/10 07:33:37;;;;;;;2.50;2.30;;;;;;;9.04;100.00;101157.72;1749899;82;21230;-38
2022/10/10 07:36:05;;;;;;;2.75;2.47;;;;;;;9.07;100.00;101153.84;1749874;81;20985;-39
2022/10/10 07:38:33;;;;;;;2.30;2.10;;;;;;;9.10;100.00;101156.41;1749630;82;21074;-39
2022/10/10 07:40:59;;;;;;;8.05;2.35;;;;;;;9.14;100.00;101149.08;1749765;82;20901;-39
2022/10/10 07:43:26;;;;;;;3.45;2.17;;;;;;;9.11;100.00;101153.41;1749851;81;20968;-41
2022/10/10 07:45:53;;;;;;;2.15;2.00;;;;;;;9.09;100.00;101153.81;1749739;82;21138;-39
2022/10/10 07:48:21;;;;;;;3.77;2.10;;;;;;;9.08;100.00;101153.39;1749731;82;20991;-39
2022/10/10 07:50:48;;;;;;;2.17;1.82;;;;;;;9.09;100.00;101150.81;1741019;81;20997;-40
2022/10/10 07:53:14;;;;;;;2.22;2.02;;;;;;;9.08;100.00;101148.22;1736439;81;20921;-38
2022/10/10 07:55:42;;;;;;;2.60;1.90;;;;;;;9.05;100.00;101150.40;1736534;82;20893;-38
2022/10/10 07:58:10;;;;;;;2.58;1.98;;;;;;;9.00;100.00;101152.13;1736425;82;21128;-41
2022/10/10 08:00:43;;;;;;;4.62;2.10;;;;;;;8.94;100.00;101166.31;1736006;82;20834;-38
2022/10/10 08:03:09;;;;;;;1.80;1.70;;;;;;;8.87;100.00;101152.12;1734826;82;21027;-41
2022/10/10 08:05:41;;;;;;;4.17;2.05;;;;;;;8.83;100.00;101158.15;1736148;82;20886;-40
2022/10/10 08:08:09;;;;;;;2.62;2.35;;;;;;;8.79;100.00;101165.88;1735884;81;20945;-41
2022/10/10 08:10:36;;;;;;;5.87;2.40;;;;;;;8.76;100.00;101150.83;1736284;82;21820;-39
2022/10/10 08:13:03;;;;;;;1.95;1.67;;;;;;;8.73;100.00;101150.83;1715031;82;20984;-41
2022/10/10 08:15:32;;;;;;;2.20;2.00;;;;;;;8.73;100.00;101149.98;1736027;82;20988;-40
2022/10/10 08:18:00;;;;;;;2.60;2.40;;;;;;;8.69;100.00;101165.02;1736000;82;20917;-39
2022/10/10 08:20:26;;;;;;;2.65;2.42;;;;;;;8.66;100.00;101153.40;1736003;82;21016;-39
2022/10/10 08:22:53;;;;;;;2.87;2.02;;;;;;;8.64;100.00;101166.32;1735998;82;21183;-38
2022/10/10 08:25:20;;;;;;;4.45;2.30;;;;;;;8.67;100.00;101160.28;1735862;82;20937;-39
2022/10/10 08:27:47;;;;;;;2.65;2.30;;;;;;;8.70;100.00;101168.02;1735793;82;20929;-41
2022/10/10 08:30:14;;;;;;;3.40;2.12;;;;;;;8.69;100.00;101167.18;1735860;82;20952;-40
2022/10/10 08:32:41;;;;;;;4.55;2.00;;;;;;;8.68;100.00;101165.87;1735818;82;21373;-38
2022/10/10 08:35:08;;;;;;;2.70;2.30;;;;;;;8.67;100.00;101175.77;1735976;82;22492;-41
2022/10/10 08:37:35;;;;;;;3.62;2.12;;;;;;;8.62;100.00;101171.47;1735817;82;20937;-40
2022/10/10 08:40:02;;;;;;;2.42;2.20;;;;;;;8.57;100.00;101175.77;1736001;82;20925;-40
2022/10/10 08:42:39;;;;;;;3.42;1.80;;;;;;;8.51;100.00;101168.03;1736170;82;21414;-41
2022/10/10 08:45:11;;;;;;;3.22;1.98;;;;;;;8.49;100.00;101176.16;1735986;82;20980;-40
2022/10/10 08:47:52;;;;;;;2.87;2.58;;;;;;;8.44;100.00;101181.72;1735593;81;21232;-41
2022/10/10 08:50:38;;;;;;;5.08;2.55;;;;;;;8.43;100.00;101180.88;1738472;81;20975;-39
2022/10/10 08:53:36;;;;;;;3.73;2.40;;;;;;;8.38;100.00;101178.72;1744357;81;20972;-40
2022/10/10 08:56:05;;;;;;;3.05;2.42;;;;;;;8.30;100.00;101178.70;1744069;82;21619;-39
2022/10/10 08:58:39;;;;;;;2.55;2.30;;;;;;;8.28;100.00;101192.02;1744183;82;21332;-39
2022/10/10 09:01:23;;;;;;;4.83;2.60;;;;;;;8.22;100.00;101180.41;1744039;81;21237;-41
2022/10/10 09:03:52;;;;;;;5.80;2.67;;;;;;;8.21;100.00;101186.42;1743943;82;21490;-40
2022/10/10 09:06:39;;;;;;;2.30;2.08;;;;;;;8.19;100.00;101186.81;1743892;82;21415;-41
2022/10/10 09:09:37;;;;;;;3.05;2.85;;;;;;;8.15;100.00;101192.83;1744121;82;20873;-41
2022/10/10 09:12:43;;;;;;;5.58;2.80;;;;;;;8.09;100.00;101191.52;1743871;82;20992;-41
2022/10/10 09:15:20;;;;;;;8.23;2.40;;;;;;;8.05;100.00;101191.52;1713458;83;22061;-39
2022/10/10 09:18:24;;;;;;;3.58;2.98;;;;;;;8.04;100.00;101204.38;1739184;82;26587;-40
2022/10/10 09:21:03;;;;;;;4.55;2.67;;;;;;;8.03;100.00;101191.94;1744137;82;21048;-40
2022/10/10 09:23:55;;;;;;;4.85;2.80;;;;;;;8.05;100.00;101194.50;1744035;82;20997;-39
2022/10/10 09:26:32;;;;;;;5.85;2.90;;;;;;;8.06;100.00;101193.65;1744143;82;20944;-41
2022/10/10 09:29:25;;;;;;;4.42;2.60;;;;;;;8.05;100.00;101199.25;1714502;82;21920;-41
2022/10/10 09:32:13;;;;;;;3.42;2.98;;;;;;;8.04;100.00;101206.97;1737227;81;20854;-39
2022/10/10 09:34:47;;;;;;;4.85;2.85;;;;;;;8.02;100.00;101202.23;1744086;81;20999;-39
2022/10/10 09:37:33;;;;;;;4.22;2.62;;;;;;;8.02;100.00;101203.11;1744216;82;21431;-40
2022/10/10 09:40:18;;;;;;;2.85;2.65;;;;;;;8.02;100.00;101200.53;1744100;82;20980;-39
2022/10/10 09:42:45;;;;;;;4.75;3.10;;;;;;;7.98;100.00;101223.30;1740887;82;21364;-39
2022/10/10 09:45:19;;;;;;;3.60;3.00;;;;;;;7.97;100.00;101218.11;1743984;82;20960;-39
2022/10/10 09:47:50;;;;;;;5.33;3.00;;;;;;;7.95;100.00;101211.65;1710927;82;21398;-40
2022/10/10 09:50:16;;;;;;;5.08;2.65;;;;;;;7.92;100.00;101215.51;1742604;81;20988;-40
2022/10/10 09:52:44;;;;;;;9.68;3.75;;;;;;;7.91;100.00;101212.08;1735933;81;21455;-39
2022/10/10 09:55:25;;;;;;;4.65;2.92;;;;;;;7.92;100.00;101210.35;1735890;82;21147;-39
2022/10/10 09:57:54;;;;;;;6.22;3.25;;;;;;;7.94;100.00;101212.95;1736342;81;21029;-39
2022/10/10 10:00:32;;;;;;;8.23;3.70;;;;;;;7.93;100.00;101213.80;1735861;82;20968;-41
2022/10/10 10:03:17;;;;;;;10.95;3.33;;;;;;;7.95;100.00;101212.94;1735751;82;20945;-40
2022/10/10 10:05:57;;;;;;;3.43;2.90;;;;;;;7.97;100.00;101217.70;1736194;82;21031;-39
2022/10/10 10:08:31;;;;;;;4.62;3.52;;;;;;;7.93;100.00;101215.94;1735995;82;20980;-40
2022/10/10 10:10:59;;;;;;;4.87;3.22;;;;;;;7.94;100.00;101215.53;1715185;82;20969;-40
2022/10/10 10:13:35;;;;;;;6.90;3.17;;;;;;;7.92;100.00;101207.77;1735903;82;21083;-41
2022/10/10 10:16:10;;;;;;;6.00;3.35;;;;;;;7.91;100.00;101207.34;1715298;82;21032;-40
2022/10/10 10:18:44;;;;;;;;;;;;;;;7.89;100.00;101209.05;1738381;82;20972;-41
2022/10/10 10:21:24;;;;;;;4.83;3.62;;;;;;;7.89;100.00;101208.64;1735860;81;21051;-39
2022/10/10 10:24:01;;;;;;;5.20;3.42;;;;;;;7.89;100.00;101209.05;1735669;82;20837;-41
2022/10/10 10:26:43;;;;;;;12.25;3.22;;;;;;;7.93;100.00;101201.76;1736059;82;20945;-40
2022/10/10 10:29:31;;;;;;;3.70;3.33;;;;;;;7.97;100.00;101200.95;1735883;82;20925;-38
2022/10/10 10:32:23;;;;;;;7.37;3.60;;;;;;;8.02;100.00;101196.66;1736063;82;21443;-39
2022/10/10 10:35:07;;;;;;;3.98;2.90;;;;;;;8.06;100.00;101200.09;1735802;82;21765;-38
2022/10/10 10:37:55;;;;;;;6.70;3.17;;;;;;;8.12;100.00;101196.69;1735642;82;21030;-40
2022/10/10 10:40:49;;;;;;;4.10;3.33;;;;;;;8.16;100.00;101187.69;1715090;82;20901;-40
2022/10/10 10:43:53;;;;;;;5.05;2.98;;;;;;;8.21;100.00;101196.73;1735676;82;21470;-38
2022/10/10 10:47:04;;;;;;;4.05;3.00;;;;;;;8.24;100.00;101194.58;1735919;81;20878;-40
2022/10/10 10:49:39;;;;;;;3.25;2.72;;;;;;;8.28;100.00;101192.44;1735900;82;21252;-41
2022/10/10 10:52:56;;;;;;;5.03;3.10;;;;;;;8.33;100.00;101172.66;1746461;82;20961;-39
2022/10/10 10:55:53;;;;;;;5.53;3.10;;;;;;;8.40;100.00;101182.58;1722396;82;20900;-41
2022/10/10 10:58:37;;;;;;;7.65;2.98;;;;;;;8.46;100.00;101188.62;1749858;82;20924;-39
2022/10/10 11:01:07;;;;;;;9.20;3.05;;;;;;;8.51;100.00;101187.80;1749881;81;20968;-39
2022/10/10 11:04:01;;;;;;;6.80;2.87;;;;;;;8.53;100.00;101186.95;1749528;82;21240;-39
2022/10/10 11:07:00;;;;;;;7.03;2.65;;;;;;;8.56;100.00;101190.82;1749695;81;20916;-41
2022/10/10 11:09:40;;;;;;;4.97;2.60;;;;;;;8.59;100.00;101188.69;1749676;81;21514;-39
2022/10/10 11:12:45;;;;;;;3.62;2.60;;;;;;;8.60;100.00;101199.00;1749803;82;20992;-40
2022/10/10 11:15:29;;;;;;;3.50;2.65;;;;;;;8.56;100.00;101197.69;1749819;80;20944;-39
2022/10/10 11:18:07;;;;;;;4.20;2.90;;;;;;;8.51;100.00;101185.22;1749920;81;21172;-40
2022/10/10 11:20:41;;;;;;;3.20;2.70;;;;;;;8.48;100.00;101186.05;1749369;82;20972;-38
2022/10/10 11:23:33;;;;;;;4.95;2.80;;;;;;;8.49;100.00;101183.91;1749976;82;20940;-39
2022/10/10 11:26:04;;;;;;;10.88;2.77;;;;;;;8.51;100.00;101183.92;1742104;82;20896;-39
2022/10/10 11:28:42;;;;;;;7.53;2.52;;;;;;;8.48;100.00;101181.73;1750132;82;20885;-40
2022/10/10 11:31:16;;;;;;;5.33;2.70;;;;;;;8.51;100.00;101191.66;1721980;82;22109;-41
2022/10/10 11:33:46;;;;;;;7.75;2.67;;;;;;;8.52;100.00;101185.64;1746626;82;20889;-40
2022/10/10 11:36:19;;;;;;;4.25;2.80;;;;;;;8.53;100.00;101183.49;1749791;82;21311;-38
2022/10/10 11:39:06;;;;;;;11.83;2.95;;;;;;;8.55;100.00;101185.64;1749772;81;21549;-40
2022/10/10 11:41:38;;;;;;;5.03;2.72;;;;;;;8.54;100.00;101185.22;1749595;82;21455;-39
2022/10/10 11:44:25;;;;;;;5.22;2.85;;;;;;;8.55;100.00;101186.52;1750167;82;21708;-38